Hay, Washington
Current Conditions -  °F | °C
As of 10:53 AM on Friday 24 Oct 2014 (Local Time) from KPUW Reporting Station
Broken Clouds Broken Clouds  
Wind Chill: 50°   Ceiling: 4800
Heat Index: 50°   Visibility: 10mi
Dew Point: 45°   Wind: 10mph
Humidity: 83%   Direction: 80°E
Pressure: 30.11"   Gusts: NA
Location:  46.68°N, 117.92°W
Report Text: KPUW 241753Z AUTO 08009KT 10SM BKN048 10/07 A3011 RMK AO2 SLP201 T01000072 10106 20061 51004
Loading
Personal Weather Stations






























Interactive Weather Map
Tropical Storm Tracking
New forecast layout! Learn more

10-Day Weather Forecast

Advertisements
Track Severe Weather on mobile